sensor_id;sensor_type;location;lat;lon;timestamp;pressure;altitude;pressure_sealevel;temperature;humidity
76434;BME280;65265;53.200;6.080;2023-05-29T00:04:02;102598.75;;;9.68;83.71
76434;BME280;65265;53.200;6.080;2023-05-29T00:08:54;102596.78;;;9.64;83.84
76434;BME280;65265;53.200;6.080;2023-05-29T00:13:47;102604.78;;;9.57;84.52
76434;BME280;65265;53.200;6.080;2023-05-29T00:18:38;102606.53;;;9.58;84.58
76434;BME280;65265;53.200;6.080;2023-05-29T00:23:35;102608.56;;;9.51;84.79
76434;BME280;65265;53.200;6.080;2023-05-29T00:28:27;102604.81;;;9.46;85.26
76434;BME280;65265;53.200;6.080;2023-05-29T00:33:21;102593.34;;;9.41;85.08
76434;BME280;65265;53.200;6.080;2023-05-29T00:38:14;102605.91;;;9.38;85.76
76434;BME280;65265;53.200;6.080;2023-05-29T00:43:05;102618.69;;;9.38;85.52
76434;BME280;65265;53.200;6.080;2023-05-29T00:47:57;102624.56;;;9.37;85.49
76434;BME280;65265;53.200;6.080;2023-05-29T00:52:51;102633.78;;;9.35;85.53
76434;BME280;65265;53.200;6.080;2023-05-29T00:57:43;102629.22;;;9.31;85.03
76434;BME280;65265;53.200;6.080;2023-05-29T01:02:38;102637.78;;;9.32;84.82
76434;BME280;65265;53.200;6.080;2023-05-29T01:07:32;102630.56;;;9.26;84.98
76434;BME280;65265;53.200;6.080;2023-05-29T01:12:35;102613.88;;;9.08;84.50
76434;BME280;65265;53.200;6.080;2023-05-29T01:17:37;102633.44;;;9.19;83.81
76434;BME280;65265;53.200;6.080;2023-05-29T01:22:40;102628.09;;;9.16;83.58
76434;BME280;65265;53.200;6.080;2023-05-29T01:27:41;102635.19;;;9.20;84.22
76434;BME280;65265;53.200;6.080;2023-05-29T01:32:34;102616.13;;;9.15;84.48
76434;BME280;65265;53.200;6.080;2023-05-29T01:37:26;102607.69;;;9.16;84.79
76434;BME280;65265;53.200;6.080;2023-05-29T01:42:19;102611.44;;;9.21;84.16
76434;BME280;65265;53.200;6.080;2023-05-29T01:47:13;102622.00;;;9.26;83.86
76434;BME280;65265;53.200;6.080;2023-05-29T01:52:05;102616.34;;;9.30;83.75
76434;BME280;65265;53.200;6.080;2023-05-29T01:56:57;102611.78;;;9.26;83.44
76434;BME280;65265;53.200;6.080;2023-05-29T02:01:51;102611.47;;;9.10;83.82
76434;BME280;65265;53.200;6.080;2023-05-29T02:06:44;102628.66;;;9.12;84.03
76434;BME280;65265;53.200;6.080;2023-05-29T02:11:35;102637.19;;;9.13;84.18
76434;BME280;65265;53.200;6.080;2023-05-29T02:16:28;102636.41;;;9.14;84.87
76434;BME280;65265;53.200;6.080;2023-05-29T02:21:23;102630.53;;;9.15;84.72
76434;BME280;65265;53.200;6.080;2023-05-29T02:26:18;102633.00;;;9.13;84.70
76434;BME280;65265;53.200;6.080;2023-05-29T02:31:10;102637.41;;;9.16;84.74
76434;BME280;65265;53.200;6.080;2023-05-29T02:36:02;102624.09;;;9.08;85.23
76434;BME280;65265;53.200;6.080;2023-05-29T02:40:54;102644.09;;;9.25;83.35
76434;BME280;65265;53.200;6.080;2023-05-29T02:45:47;102644.53;;;9.43;82.13
76434;BME280;65265;53.200;6.080;2023-05-29T02:50:39;102643.66;;;9.53;81.34
76434;BME280;65265;53.200;6.080;2023-05-29T02:55:31;102640.97;;;9.63;81.10
76434;BME280;65265;53.200;6.080;2023-05-29T03:00:26;102634.72;;;9.71;80.18
76434;BME280;65265;53.200;6.080;2023-05-29T03:05:20;102635.84;;;9.75;80.04
76434;BME280;65265;53.200;6.080;2023-05-29T03:10:11;102625.75;;;9.76;79.80
76434;BME280;65265;53.200;6.080;2023-05-29T03:15:08;102637.16;;;9.81;79.83
76434;BME280;65265;53.200;6.080;2023-05-29T03:19:59;102628.72;;;9.82;79.44
76434;BME280;65265;53.200;6.080;2023-05-29T03:24:53;102630.28;;;9.80;80.16
76434;BME280;65265;53.200;6.080;2023-05-29T03:29:45;102628.97;;;9.85;80.16
76434;BME280;65265;53.200;6.080;2023-05-29T03:34:37;102624.25;;;9.91;79.92
76434;BME280;65265;53.200;6.080;2023-05-29T03:39:30;102630.69;;;9.98;79.12
76434;BME280;65265;53.200;6.080;2023-05-29T03:44:23;102634.25;;;10.00;78.73
76434;BME280;65265;53.200;6.080;2023-05-29T03:49:16;102642.25;;;10.04;78.39
76434;BME280;65265;53.200;6.080;2023-05-29T03:54:07;102650.94;;;10.06;79.13
76434;BME280;65265;53.200;6.080;2023-05-29T03:58:59;102647.59;;;10.07;79.62
76434;BME280;65265;53.200;6.080;2023-05-29T04:03:54;102659.34;;;10.17;79.13
76434;BME280;65265;53.200;6.080;2023-05-29T04:08:46;102669.25;;;10.24;79.35
76434;BME280;65265;53.200;6.080;2023-05-29T04:13:38;102667.75;;;10.27;78.97
76434;BME280;65265;53.200;6.080;2023-05-29T04:18:30;102675.06;;;10.34;78.70
76434;BME280;65265;53.200;6.080;2023-05-29T04:23:25;102660.72;;;10.36;77.80
76434;BME280;65265;53.200;6.080;2023-05-29T04:28:17;102672.84;;;10.39;76.57
76434;BME280;65265;53.200;6.080;2023-05-29T04:33:12;102668.41;;;10.36;76.01
76434;BME280;65265;53.200;6.080;2023-05-29T04:38:04;102672.38;;;10.44;75.15
76434;BME280;65265;53.200;6.080;2023-05-29T04:42:59;102683.72;;;10.48;75.40
76434;BME280;65265;53.200;6.080;2023-05-29T04:47:52;102685.38;;;10.47;75.13
76434;BME280;65265;53.200;6.080;2023-05-29T04:52:45;102681.16;;;10.48;74.62
76434;BME280;65265;53.200;6.080;2023-05-29T04:57:37;102678.69;;;10.49;74.38
76434;BME280;65265;53.200;6.080;2023-05-29T05:02:30;102686.16;;;10.46;73.45
76434;BME280;65265;53.200;6.080;2023-05-29T05:07:22;102687.47;;;10.53;74.69
76434;BME280;65265;53.200;6.080;2023-05-29T05:12:14;102681.72;;;10.68;74.85
76434;BME280;65265;53.200;6.080;2023-05-29T05:17:07;102692.91;;;10.82;73.79
76434;BME280;65265;53.200;6.080;2023-05-29T05:22:03;102679.13;;;10.80;74.62
76434;BME280;65265;53.200;6.080;2023-05-29T05:26:55;102686.69;;;10.78;73.82
76434;BME280;65265;53.200;6.080;2023-05-29T05:31:47;102690.84;;;10.89;73.93
76434;BME280;65265;53.200;6.080;2023-05-29T05:36:40;102687.50;;;10.90;74.66
76434;BME280;65265;53.200;6.080;2023-05-29T05:41:33;102699.75;;;10.94;75.14
76434;BME280;65265;53.200;6.080;2023-05-29T05:46:24;102702.59;;;10.99;74.25
76434;BME280;65265;53.200;6.080;2023-05-29T05:51:17;102688.63;;;10.94;74.00
76434;BME280;65265;53.200;6.080;2023-05-29T05:56:09;102700.19;;;11.13;74.96
76434;BME280;65265;53.200;6.080;2023-05-29T06:01:03;102698.72;;;11.30;73.34
76434;BME280;65265;53.200;6.080;2023-05-29T06:05:54;102694.72;;;11.46;73.62
76434;BME280;65265;53.200;6.080;2023-05-29T06:10:46;102691.22;;;11.57;73.77
76434;BME280;65265;53.200;6.080;2023-05-29T06:15:38;102709.84;;;11.81;72.38
76434;BME280;65265;53.200;6.080;2023-05-29T06:20:32;102709.34;;;11.60;73.37
76434;BME280;65265;53.200;6.080;2023-05-29T06:25:24;102725.72;;;11.75;71.24
76434;BME280;65265;53.200;6.080;2023-05-29T06:30:24;102729.69;;;11.83;69.88
76434;BME280;65265;53.200;6.080;2023-05-29T06:35:16;102730.44;;;11.82;70.56
76434;BME280;65265;53.200;6.080;2023-05-29T06:40:09;102729.44;;;11.93;70.42
76434;BME280;65265;53.200;6.080;2023-05-29T06:45:02;102726.09;;;11.94;71.03
76434;BME280;65265;53.200;6.080;2023-05-29T06:49:54;102737.44;;;11.97;71.65
76434;BME280;65265;53.200;6.080;2023-05-29T06:54:46;102732.41;;;12.12;71.69
76434;BME280;65265;53.200;6.080;2023-05-29T06:59:40;102751.13;;;12.24;68.89
76434;BME280;65265;53.200;6.080;2023-05-29T07:04:32;102749.34;;;12.23;68.76
76434;BME280;65265;53.200;6.080;2023-05-29T07:09:24;102761.56;;;12.27;68.09
76434;BME280;65265;53.200;6.080;2023-05-29T07:14:18;102764.63;;;12.34;68.76
76434;BME280;65265;53.200;6.080;2023-05-29T07:19:11;102765.50;;;12.35;70.30
76434;BME280;65265;53.200;6.080;2023-05-29T07:24:04;102765.19;;;12.43;70.88
76434;BME280;65265;53.200;6.080;2023-05-29T07:28:57;102776.91;;;12.66;68.11
76434;BME280;65265;53.200;6.080;2023-05-29T07:33:49;102769.94;;;12.78;67.54
76434;BME280;65265;53.200;6.080;2023-05-29T07:38:43;102780.03;;;12.75;67.52
76434;BME280;65265;53.200;6.080;2023-05-29T07:43:35;102772.56;;;12.92;67.41
76434;BME280;65265;53.200;6.080;2023-05-29T07:48:27;102773.97;;;13.00;68.00
76434;BME280;65265;53.200;6.080;2023-05-29T07:53:19;102771.13;;;13.10;66.28
76434;BME280;65265;53.200;6.080;2023-05-29T07:58:13;102767.97;;;13.29;67.79
76434;BME280;65265;53.200;6.080;2023-05-29T08:03:06;102754.66;;;13.21;66.77
76434;BME280;65265;53.200;6.080;2023-05-29T08:07:58;102772.31;;;13.30;65.94
76434;BME280;65265;53.200;6.080;2023-05-29T08:12:50;102769.22;;;13.35;65.47
76434;BME280;65265;53.200;6.080;2023-05-29T08:17:44;102780.44;;;13.23;67.18
76434;BME280;65265;53.200;6.080;2023-05-29T08:22:35;102776.75;;;13.47;66.42
76434;BME280;65265;53.200;6.080;2023-05-29T08:27:29;102779.31;;;13.47;64.92
76434;BME280;65265;53.200;6.080;2023-05-29T08:32:22;102778.53;;;13.33;66.68
76434;BME280;65265;53.200;6.080;2023-05-29T08:37:16;102785.69;;;13.24;68.08
76434;BME280;65265;53.200;6.080;2023-05-29T08:42:11;102791.56;;;13.51;66.34
76434;BME280;65265;53.200;6.080;2023-05-29T08:47:07;102794.41;;;13.70;65.21
76434;BME280;65265;53.200;6.080;2023-05-29T08:52:04;102788.44;;;13.85;64.41
76434;BME280;65265;53.200;6.080;2023-05-29T08:57:03;102796.78;;;13.96;65.05
76434;BME280;65265;53.200;6.080;2023-05-29T09:01:56;102794.75;;;13.90;64.19
76434;BME280;65265;53.200;6.080;2023-05-29T09:06:49;102790.31;;;13.73;65.51
76434;BME280;65265;53.200;6.080;2023-05-29T09:11:43;102801.47;;;13.88;64.70
76434;BME280;65265;53.200;6.080;2023-05-29T09:16:41;102807.69;;;14.06;63.50
76434;BME280;65265;53.200;6.080;2023-05-29T09:21:33;102801.69;;;13.77;66.68
76434;BME280;65265;53.200;6.080;2023-05-29T09:26:25;102814.06;;;14.13;65.60
76434;BME280;65265;53.200;6.080;2023-05-29T09:31:18;102809.22;;;14.47;63.23
76434;BME280;65265;53.200;6.080;2023-05-29T09:36:21;102805.84;;;14.48;63.84
76434;BME280;65265;53.200;6.080;2023-05-29T09:41:13;102801.75;;;14.52;64.01
76434;BME280;65265;53.200;6.080;2023-05-29T09:46:15;102786.97;;;14.64;63.36
76434;BME280;65265;53.200;6.080;2023-05-29T09:51:21;102801.94;;;15.19;60.93
76434;BME280;65265;53.200;6.080;2023-05-29T09:56:15;102800.75;;;15.44;59.83
76434;BME280;65265;53.200;6.080;2023-05-29T10:01:08;102802.69;;;15.16;60.37
76434;BME280;65265;53.200;6.080;2023-05-29T10:06:02;102803.97;;;15.24;62.33
76434;BME280;65265;53.200;6.080;2023-05-29T10:11:01;102794.34;;;15.87;60.56
76434;BME280;65265;53.200;6.080;2023-05-29T10:15:55;102793.03;;;15.95;61.65
76434;BME280;65265;53.200;6.080;2023-05-29T10:20:50;102810.00;;;16.25;58.10
76434;BME280;65265;53.200;6.080;2023-05-29T10:25:45;102798.66;;;16.39;58.17
76434;BME280;65265;53.200;6.080;2023-05-29T10:30:49;102801.50;;;16.63;56.66
76434;BME280;65265;53.200;6.080;2023-05-29T10:35:46;102805.59;;;16.40;57.60
76434;BME280;65265;53.200;6.080;2023-05-29T10:40:40;102805.78;;;16.81;58.04
76434;BME280;65265;53.200;6.080;2023-05-29T10:45:53;102783.53;;;16.83;57.46
76434;BME280;65265;53.200;6.080;2023-05-29T10:50:46;102770.66;;;17.03;54.50
76434;BME280;65265;53.200;6.080;2023-05-29T10:55:41;102787.19;;;17.65;53.73
76434;BME280;65265;53.200;6.080;2023-05-29T11:00:39;102787.78;;;17.20;55.31
76434;BME280;65265;53.200;6.080;2023-05-29T11:05:55;102798.94;;;17.78;54.23
76434;BME280;65265;53.200;6.080;2023-05-29T11:11:05;102788.00;;;17.44;56.74
76434;BME280;65265;53.200;6.080;2023-05-29T11:16:20;102792.25;;;17.83;51.97
76434;BME280;65265;53.200;6.080;2023-05-29T11:21:33;102791.88;;;17.74;53.87
76434;BME280;65265;53.200;6.080;2023-05-29T11:26:27;102796.81;;;18.10;53.51
76434;BME280;65265;53.200;6.080;2023-05-29T11:31:24;102793.81;;;18.00;51.87
76434;BME280;65265;53.200;6.080;2023-05-29T11:36:22;102795.22;;;17.51;52.93
76434;BME280;65265;53.200;6.080;2023-05-29T11:41:19;102791.88;;;17.94;53.24
76434;BME280;65265;53.200;6.080;2023-05-29T11:46:17;102786.66;;;18.35;50.87
76434;BME280;65265;53.200;6.080;2023-05-29T11:51:10;102794.50;;;18.16;52.37
76434;BME280;65265;53.200;6.080;2023-05-29T11:56:08;102795.56;;;18.64;51.12
76434;BME280;65265;53.200;6.080;2023-05-29T12:01:03;102804.69;;;19.00;48.87
76434;BME280;65265;53.200;6.080;2023-05-29T12:05:55;102794.91;;;18.93;50.22
76434;BME280;65265;53.200;6.080;2023-05-29T12:10:48;102804.44;;;18.70;50.39
76434;BME280;65265;53.200;6.080;2023-05-29T12:15:43;102797.41;;;18.03;50.98
76434;BME280;65265;53.200;6.080;2023-05-29T12:20:37;102795.03;;;18.50;49.41
76434;BME280;65265;53.200;6.080;2023-05-29T12:25:29;102794.47;;;18.37;51.59
76434;BME280;65265;53.200;6.080;2023-05-29T12:30:22;102796.63;;;18.92;48.74
76434;BME280;65265;53.200;6.080;2023-05-29T12:35:16;102794.72;;;18.88;48.32
76434;BME280;65265;53.200;6.080;2023-05-29T12:40:14;102792.03;;;18.40;51.60
76434;BME280;65265;53.200;6.080;2023-05-29T12:45:07;102783.91;;;18.76;48.98
76434;BME280;65265;53.200;6.080;2023-05-29T12:50:04;102799.06;;;19.11;47.67
76434;BME280;65265;53.200;6.080;2023-05-29T12:55:08;102787.03;;;19.13;47.94
76434;BME280;65265;53.200;6.080;2023-05-29T13:00:01;102801.66;;;19.58;46.33
76434;BME280;65265;53.200;6.080;2023-05-29T13:04:54;102788.41;;;19.75;45.66
76434;BME280;65265;53.200;6.080;2023-05-29T13:09:47;102796.78;;;19.19;47.81
76434;BME280;65265;53.200;6.080;2023-05-29T13:14:39;102801.84;;;18.70;48.43
76434;BME280;65265;53.200;6.080;2023-05-29T13:19:34;102805.41;;;18.09;49.77
76434;BME280;65265;53.200;6.080;2023-05-29T13:24:26;102805.06;;;17.59;54.13
76434;BME280;65265;53.200;6.080;2023-05-29T13:29:18;102783.28;;;18.38;50.39
76434;BME280;65265;53.200;6.080;2023-05-29T13:34:10;102796.59;;;18.69;48.66
76434;BME280;65265;53.200;6.080;2023-05-29T13:39:04;102797.78;;;17.92;50.41
76434;BME280;65265;53.200;6.080;2023-05-29T13:43:57;102787.16;;;18.71;49.08
76434;BME280;65265;53.200;6.080;2023-05-29T13:48:50;102796.84;;;18.98;47.13
76434;BME280;65265;53.200;6.080;2023-05-29T13:53:42;102795.59;;;18.65;46.85
76434;BME280;65265;53.200;6.080;2023-05-29T13:58:36;102793.22;;;19.17;47.79
76434;BME280;65265;53.200;6.080;2023-05-29T14:03:29;102788.94;;;19.41;46.84
76434;BME280;65265;53.200;6.080;2023-05-29T14:08:21;102792.66;;;19.48;46.23
76434;BME280;65265;53.200;6.080;2023-05-29T14:13:13;102790.59;;;19.39;43.82
76434;BME280;65265;53.200;6.080;2023-05-29T14:18:08;102801.81;;;19.16;45.58
76434;BME280;65265;53.200;6.080;2023-05-29T14:23:00;102798.41;;;19.17;44.43
76434;BME280;65265;53.200;6.080;2023-05-29T14:27:52;102801.06;;;19.42;42.13
76434;BME280;65265;53.200;6.080;2023-05-29T14:32:44;102779.16;;;19.34;45.75
76434;BME280;65265;53.200;6.080;2023-05-29T14:37:38;102779.91;;;19.54;43.41
76434;BME280;65265;53.200;6.080;2023-05-29T14:42:30;102790.78;;;19.45;41.80
76434;BME280;65265;53.200;6.080;2023-05-29T14:47:23;102792.66;;;19.48;39.29
76434;BME280;65265;53.200;6.080;2023-05-29T14:52:16;102803.41;;;18.89;43.91
76434;BME280;65265;53.200;6.080;2023-05-29T14:57:11;102796.78;;;19.19;44.52
76434;BME280;65265;53.200;6.080;2023-05-29T15:02:04;102799.22;;;19.16;45.08
76434;BME280;65265;53.200;6.080;2023-05-29T15:06:56;102801.59;;;19.10;42.88
76434;BME280;65265;53.200;6.080;2023-05-29T15:11:48;102792.88;;;18.40;48.25
76434;BME280;65265;53.200;6.080;2023-05-29T15:16:43;102795.69;;;18.04;47.99
76434;BME280;65265;53.200;6.080;2023-05-29T15:21:35;102801.28;;;18.33;46.80
76434;BME280;65265;53.200;6.080;2023-05-29T15:26:27;102800.50;;;18.58;48.94
76434;BME280;65265;53.200;6.080;2023-05-29T15:31:20;102802.13;;;18.34;49.07
76434;BME280;65265;53.200;6.080;2023-05-29T15:36:15;102793.97;;;18.45;49.35
76434;BME280;65265;53.200;6.080;2023-05-29T15:41:10;102798.59;;;18.99;48.74
76434;BME280;65265;53.200;6.080;2023-05-29T15:46:02;102800.31;;;18.31;49.15
76434;BME280;65265;53.200;6.080;2023-05-29T15:50:54;102798.91;;;18.39;49.13
76434;BME280;65265;53.200;6.080;2023-05-29T15:55:49;102805.19;;;18.03;48.09
76434;BME280;65265;53.200;6.080;2023-05-29T16:00:42;102806.53;;;17.54;49.68
76434;BME280;65265;53.200;6.080;2023-05-29T16:05:35;102795.72;;;17.63;50.57
76434;BME280;65265;53.200;6.080;2023-05-29T16:10:27;102811.41;;;17.28;52.02
76434;BME280;65265;53.200;6.080;2023-05-29T16:15:21;102796.06;;;16.76;52.28
76434;BME280;65265;53.200;6.080;2023-05-29T16:20:14;102802.19;;;16.24;54.26
76434;BME280;65265;53.200;6.080;2023-05-29T16:25:07;102800.69;;;16.64;52.01
76434;BME280;65265;53.200;6.080;2023-05-29T16:30:01;102800.56;;;16.43;54.43
76434;BME280;65265;53.200;6.080;2023-05-29T16:35:00;102819.69;;;16.83;53.08
76434;BME280;65265;53.200;6.080;2023-05-29T16:39:53;102815.34;;;17.01;53.44
76434;BME280;65265;53.200;6.080;2023-05-29T16:44:45;102819.28;;;17.12;53.34
76434;BME280;65265;53.200;6.080;2023-05-29T16:49:37;102801.84;;;16.70;55.11
76434;BME280;65265;53.200;6.080;2023-05-29T16:54:35;102815.69;;;16.90;52.08
76434;BME280;65265;53.200;6.080;2023-05-29T16:59:30;102807.13;;;15.84;55.40
76434;BME280;65265;53.200;6.080;2023-05-29T17:04:22;102809.94;;;16.06;55.85
76434;BME280;65265;53.200;6.080;2023-05-29T17:09:14;102812.06;;;16.15;57.50
76434;BME280;65265;53.200;6.080;2023-05-29T17:14:07;102817.25;;;16.50;55.25
76434;BME280;65265;53.200;6.080;2023-05-29T17:19:01;102809.84;;;16.05;56.24
76434;BME280;65265;53.200;6.080;2023-05-29T17:23:53;102824.44;;;16.04;57.47
76434;BME280;65265;53.200;6.080;2023-05-29T17:28:46;102827.84;;;16.03;56.24
76434;BME280;65265;53.200;6.080;2023-05-29T17:33:42;102828.41;;;15.80;57.35
76434;BME280;65265;53.200;6.080;2023-05-29T17:38:34;102827.88;;;15.54;58.13
76434;BME280;65265;53.200;6.080;2023-05-29T17:43:27;102837.16;;;15.18;58.45
76434;BME280;65265;53.200;6.080;2023-05-29T17:48:19;102833.41;;;14.81;59.71
76434;BME280;65265;53.200;6.080;2023-05-29T17:53:13;102827.59;;;14.53;60.45
76434;BME280;65265;53.200;6.080;2023-05-29T17:58:07;102828.31;;;14.37;62.04
76434;BME280;65265;53.200;6.080;2023-05-29T18:02:59;102826.94;;;14.57;61.32
76434;BME280;65265;53.200;6.080;2023-05-29T18:07:52;102793.28;;;14.39;61.45
76434;BME280;65265;53.200;6.080;2023-05-29T18:12:46;102829.44;;;14.56;61.60
76434;BME280;65265;53.200;6.080;2023-05-29T18:17:37;102831.41;;;14.45;62.99
76434;BME280;65265;53.200;6.080;2023-05-29T18:22:29;102832.88;;;14.26;63.33
76434;BME280;65265;53.200;6.080;2023-05-29T18:27:21;102823.78;;;14.17;62.46
76434;BME280;65265;53.200;6.080;2023-05-29T18:32:14;102787.03;;;13.90;64.09
76434;BME280;65265;53.200;6.080;2023-05-29T18:37:12;102777.56;;;13.75;62.28
76434;BME280;65265;53.200;6.080;2023-05-29T18:42:06;102827.19;;;13.88;62.87
76434;BME280;65265;53.200;6.080;2023-05-29T18:46:58;102824.91;;;13.64;63.84
76434;BME280;65265;53.200;6.080;2023-05-29T18:51:52;102828.97;;;13.46;64.15
76434;BME280;65265;53.200;6.080;2023-05-29T18:56:45;102829.41;;;13.39;64.97
76434;BME280;65265;53.200;6.080;2023-05-29T19:01:37;102836.50;;;13.43;64.67
76434;BME280;65265;53.200;6.080;2023-05-29T19:06:28;102837.88;;;13.23;65.58
76434;BME280;65265;53.200;6.080;2023-05-29T19:11:24;102841.94;;;13.20;65.87
76434;BME280;65265;53.200;6.080;2023-05-29T19:16:17;102839.22;;;13.04;66.52
76434;BME280;65265;53.200;6.080;2023-05-29T19:21:08;102844.97;;;13.00;66.02
76434;BME280;65265;53.200;6.080;2023-05-29T19:26:00;102840.44;;;12.96;66.81
76434;BME280;65265;53.200;6.080;2023-05-29T19:30:57;102833.34;;;12.79;67.25
76434;BME280;65265;53.200;6.080;2023-05-29T19:35:51;102842.06;;;12.68;67.70
76434;BME280;65265;53.200;6.080;2023-05-29T19:40:43;102844.25;;;12.62;67.88
76434;BME280;65265;53.200;6.080;2023-05-29T19:45:38;102845.81;;;12.60;68.01
76434;BME280;65265;53.200;6.080;2023-05-29T19:50:34;102844.94;;;12.59;68.20
76434;BME280;65265;53.200;6.080;2023-05-29T19:55:31;102848.41;;;12.47;69.13
76434;BME280;65265;53.200;6.080;2023-05-29T20:00:26;102840.50;;;12.44;69.38
76434;BME280;65265;53.200;6.080;2023-05-29T20:05:18;102843.97;;;12.44;69.25
76434;BME280;65265;53.200;6.080;2023-05-29T20:10:12;102844.44;;;12.26;70.10
76434;BME280;65265;53.200;6.080;2023-05-29T20:15:06;102850.38;;;12.25;69.69
76434;BME280;65265;53.200;6.080;2023-05-29T20:19:59;102854.63;;;12.24;70.02
76434;BME280;65265;53.200;6.080;2023-05-29T20:24:58;102851.97;;;12.23;70.39
76434;BME280;65265;53.200;6.080;2023-05-29T20:29:52;102842.38;;;12.20;70.65
76434;BME280;65265;53.200;6.080;2023-05-29T20:34:47;102841.28;;;12.04;70.88
76434;BME280;65265;53.200;6.080;2023-05-29T20:39:41;102852.34;;;12.03;71.31
76434;BME280;65265;53.200;6.080;2023-05-29T20:44:34;102851.06;;;12.09;70.60
76434;BME280;65265;53.200;6.080;2023-05-29T20:49:27;102857.56;;;12.04;70.25
76434;BME280;65265;53.200;6.080;2023-05-29T20:54:19;102858.66;;;11.95;71.10
76434;BME280;65265;53.200;6.080;2023-05-29T20:59:10;102849.09;;;11.93;71.44
76434;BME280;65265;53.200;6.080;2023-05-29T21:04:02;102854.22;;;11.93;71.23
76434;BME280;65265;53.200;6.080;2023-05-29T21:08:55;102857.44;;;11.90;71.73
76434;BME280;65265;53.200;6.080;2023-05-29T21:13:47;102851.81;;;11.83;71.77
76434;BME280;65265;53.200;6.080;2023-05-29T21:18:38;102849.84;;;11.79;72.39
76434;BME280;65265;53.200;6.080;2023-05-29T21:23:30;102853.22;;;11.78;72.13
76434;BME280;65265;53.200;6.080;2023-05-29T21:28:24;102845.28;;;11.75;72.42
76434;BME280;65265;53.200;6.080;2023-05-29T21:33:16;102850.91;;;11.69;72.88
76434;BME280;65265;53.200;6.080;2023-05-29T21:38:08;102845.59;;;11.79;72.59
76434;BME280;65265;53.200;6.080;2023-05-29T21:43:00;102845.22;;;11.73;73.27
76434;BME280;65265;53.200;6.080;2023-05-29T21:47:53;102844.31;;;11.73;73.75
76434;BME280;65265;53.200;6.080;2023-05-29T21:52:44;102839.50;;;11.77;72.82
76434;BME280;65265;53.200;6.080;2023-05-29T21:57:36;102836.44;;;11.83;73.34
76434;BME280;65265;53.200;6.080;2023-05-29T22:02:28;102834.56;;;11.80;73.73
76434;BME280;65265;53.200;6.080;2023-05-29T22:07:23;102825.69;;;11.75;72.47
76434;BME280;65265;53.200;6.080;2023-05-29T22:12:14;102836.91;;;11.64;72.76
76434;BME280;65265;53.200;6.080;2023-05-29T22:17:06;102828.53;;;11.67;73.27
76434;BME280;65265;53.200;6.080;2023-05-29T22:21:59;102840.56;;;11.68;73.95
76434;BME280;65265;53.200;6.080;2023-05-29T22:26:53;102835.13;;;11.63;73.33
76434;BME280;65265;53.200;6.080;2023-05-29T22:31:44;102855.41;;;11.60;74.32
76434;BME280;65265;53.200;6.080;2023-05-29T22:36:36;102858.28;;;11.65;75.08
76434;BME280;65265;53.200;6.080;2023-05-29T22:41:27;102852.34;;;11.66;74.39
76434;BME280;65265;53.200;6.080;2023-05-29T22:46:20;102855.22;;;11.70;74.98
76434;BME280;65265;53.200;6.080;2023-05-29T22:51:11;102842.66;;;11.73;73.92
76434;BME280;65265;53.200;6.080;2023-05-29T22:56:05;102834.06;;;11.73;74.62
76434;BME280;65265;53.200;6.080;2023-05-29T23:00:57;102832.09;;;11.69;74.35
76434;BME280;65265;53.200;6.080;2023-05-29T23:05:50;102831.78;;;11.64;75.41
76434;BME280;65265;53.200;6.080;2023-05-29T23:10:41;102825.66;;;11.62;74.92
76434;BME280;65265;53.200;6.080;2023-05-29T23:15:33;102840.25;;;11.63;75.05
76434;BME280;65265;53.200;6.080;2023-05-29T23:20:25;102849.06;;;11.55;74.68
76434;BME280;65265;53.200;6.080;2023-05-29T23:25:22;102838.97;;;11.57;74.15
76434;BME280;65265;53.200;6.080;2023-05-29T23:30:14;102829.47;;;11.56;75.24
76434;BME280;65265;53.200;6.080;2023-05-29T23:35:07;102834.03;;;11.48;75.09
76434;BME280;65265;53.200;6.080;2023-05-29T23:39:59;102827.94;;;11.46;75.30
76434;BME280;65265;53.200;6.080;2023-05-29T23:44:52;102827.16;;;11.47;75.42
76434;BME280;65265;53.200;6.080;2023-05-29T23:49:44;102830.97;;;11.41;75.47
76434;BME280;65265;53.200;6.080;2023-05-29T23:54:36;102838.56;;;11.39;74.29
76434;BME280;65265;53.200;6.080;2023-05-29T23:59:27;102825.53;;;11.36;74.41
